createdAt,value
2023-01-06T00:01:27.165Z,11.00
2023-01-06T00:03:58.318Z,11.00
2023-01-06T00:06:28.361Z,11.10
2023-01-06T00:08:56.863Z,11.00
2023-01-06T00:11:25.430Z,11.00
2023-01-06T00:13:53.572Z,11.00
2023-01-06T00:16:22.417Z,11.00
2023-01-06T00:18:55.925Z,11.00
2023-01-06T00:21:23.813Z,11.00
2023-01-06T00:23:51.872Z,10.90
2023-01-06T00:26:19.734Z,10.90
2023-01-06T00:28:47.876Z,10.90
2023-01-06T00:31:17.523Z,10.90
2023-01-06T00:33:45.582Z,10.90
2023-01-06T00:36:15.539Z,10.80
2023-01-06T00:38:43.801Z,10.90
2023-01-06T00:41:27.279Z,10.80
2023-01-06T00:43:55.194Z,10.80
2023-01-06T00:46:25.450Z,10.90
2023-01-06T00:49:04.614Z,10.90
2023-01-06T00:51:35.568Z,10.90
2023-01-06T00:54:03.944Z,10.90
2023-01-06T00:56:32.075Z,10.90
2023-01-06T00:58:59.938Z,10.90
2023-01-06T01:01:27.871Z,11.00
2023-01-06T01:03:55.954Z,11.00
2023-01-06T01:06:23.893Z,11.00
2023-01-06T01:08:55.894Z,11.00
2023-01-06T01:11:42.738Z,11.00
2023-01-06T01:14:11.037Z,11.00
2023-01-06T01:16:39.168Z,11.00
2023-01-06T01:19:07.421Z,11.00
2023-01-06T01:21:35.566Z,11.00
2023-01-06T01:24:05.357Z,11.00
2023-01-06T01:26:33.311Z,11.00
2023-01-06T01:29:02.169Z,11.00
2023-01-06T01:31:30.348Z,11.00
2023-01-06T01:33:58.321Z,11.00
2023-01-06T01:36:26.215Z,11.00
2023-01-06T01:38:54.059Z,11.00
2023-01-06T01:41:24.984Z,11.00
2023-01-06T01:43:55.095Z,11.00
2023-01-06T01:46:26.884Z,11.00
2023-01-06T01:48:58.084Z,11.00
2023-01-06T01:51:30.169Z,11.00
2023-01-06T01:54:03.341Z,11.00
2023-01-06T01:56:37.047Z,11.00
2023-01-06T01:59:08.510Z,11.00
2023-01-06T02:01:36.679Z,11.00
2023-01-06T02:04:05.569Z,11.00
2023-01-06T02:06:33.764Z,11.00
2023-01-06T02:09:05.220Z,11.00
2023-01-06T02:11:36.639Z,11.00
2023-01-06T02:14:11.278Z,11.00
2023-01-06T02:16:50.305Z,11.00
2023-01-06T02:19:35.813Z,10.90
2023-01-06T02:22:20.096Z,10.90
2023-01-06T02:25:26.945Z,10.90
2023-01-06T02:28:25.923Z,10.90
2023-01-06T02:31:26.279Z,10.90
2023-01-06T02:33:59.898Z,10.90
2023-01-06T02:36:37.360Z,10.90
2023-01-06T02:39:16.870Z,10.90
2023-01-06T02:41:49.143Z,10.90
2023-01-06T02:44:26.628Z,10.90
2023-01-06T02:47:06.042Z,10.90
2023-01-06T02:49:43.480Z,10.90
2023-01-06T02:52:15.506Z,10.90
2023-01-06T02:54:50.971Z,10.90
2023-01-06T02:57:24.302Z,10.90
2023-01-06T03:00:01.138Z,10.90
2023-01-06T03:02:31.930Z,11.00
2023-01-06T03:05:04.804Z,11.00
2023-01-06T03:07:33.931Z,11.00
2023-01-06T03:10:04.849Z,11.00
2023-01-06T03:12:38.267Z,11.00
2023-01-06T03:15:07.182Z,11.00
2023-01-06T03:17:35.203Z,10.90
2023-01-06T03:20:04.885Z,10.90
2023-01-06T03:22:34.715Z,11.00
2023-01-06T03:25:02.958Z,11.00
2023-01-06T03:27:31.010Z,10.90
2023-01-06T03:29:59.399Z,10.90
2023-01-06T03:32:33.436Z,10.90
2023-01-06T03:35:16.890Z,11.00
2023-01-06T03:37:53.268Z,11.00
2023-01-06T03:40:30.685Z,10.90
2023-01-06T03:43:14.137Z,11.00
2023-01-06T03:46:02.823Z,11.00
2023-01-06T03:48:46.865Z,11.00
2023-01-06T03:51:26.541Z,11.00
2023-01-06T03:54:01.612Z,11.00
2023-01-06T03:56:32.762Z,10.90
2023-01-06T03:59:04.381Z,10.90
2023-01-06T04:01:32.948Z,11.00
2023-01-06T04:04:03.421Z,11.00
2023-01-06T04:06:32.703Z,11.00
2023-01-06T04:09:00.569Z,10.90
2023-01-06T04:11:45.892Z,10.90
2023-01-06T04:14:13.765Z,11.00
2023-01-06T04:16:41.696Z,11.00
2023-01-06T04:19:09.596Z,11.00
2023-01-06T04:21:38.819Z,11.00
2023-01-06T04:24:07.342Z,11.00
2023-01-06T04:26:35.356Z,11.00
2023-01-06T04:29:03.459Z,11.00
2023-01-06T04:31:31.495Z,11.00
2023-01-06T04:33:59.547Z,11.00
2023-01-06T04:36:27.433Z,11.00
2023-01-06T04:38:56.743Z,11.10
2023-01-06T04:41:24.721Z,11.00
2023-01-06T04:43:52.598Z,11.00
2023-01-06T04:46:20.577Z,11.00
2023-01-06T04:48:48.457Z,11.00
2023-01-06T04:51:16.297Z,11.00
2023-01-06T04:53:44.181Z,11.00
2023-01-06T04:56:13.890Z,11.00
2023-01-06T04:58:41.762Z,11.00
2023-01-06T05:01:11.461Z,11.00
2023-01-06T05:03:40.313Z,11.00
2023-01-06T05:06:10.341Z,11.00
2023-01-06T05:08:38.922Z,11.00
2023-01-06T05:11:10.326Z,11.00
2023-01-06T05:13:39.863Z,11.10
2023-01-06T05:16:08.471Z,11.10
2023-01-06T05:18:37.004Z,11.10
2023-01-06T05:21:05.044Z,11.10
2023-01-06T05:23:33.185Z,11.10
2023-01-06T05:26:01.120Z,11.10
2023-01-06T05:28:30.346Z,11.10
2023-01-06T05:31:02.312Z,11.10
2023-01-06T05:33:30.491Z,11.10
2023-01-06T05:36:01.415Z,11.10
2023-01-06T05:38:29.336Z,11.00
2023-01-06T05:40:57.917Z,11.00
2023-01-06T05:43:26.775Z,10.90
2023-01-06T05:45:55.170Z,10.90
2023-01-06T05:48:26.324Z,10.80
2023-01-06T05:50:54.246Z,10.80
2023-01-06T05:53:22.125Z,10.80
2023-01-06T05:55:49.961Z,10.70
2023-01-06T05:58:17.777Z,10.70
2023-01-06T06:00:45.600Z,10.70
2023-01-06T06:03:13.446Z,10.70
2023-01-06T06:05:42.669Z,10.70
2023-01-06T06:08:10.542Z,10.60
2023-01-06T06:10:38.409Z,10.60
2023-01-06T06:13:06.505Z,10.60
2023-01-06T06:15:34.510Z,10.60
2023-01-06T06:18:02.991Z,10.60
2023-01-06T06:20:31.085Z,10.50
2023-01-06T06:23:00.358Z,10.50
2023-01-06T06:25:29.411Z,10.50
2023-01-06T06:28:00.735Z,10.50
2023-01-06T06:30:28.625Z,10.50
2023-01-06T06:32:56.453Z,10.50
2023-01-06T06:35:24.350Z,10.50
2023-01-06T06:37:54.689Z,10.50
2023-01-06T06:40:23.955Z,10.50
2023-01-06T06:42:53.181Z,10.40
2023-01-06T06:45:21.016Z,10.40
2023-01-06T06:47:48.918Z,10.40
2023-01-06T06:50:17.036Z,10.40
2023-01-06T06:52:44.917Z,10.40
2023-01-06T06:55:12.818Z,10.40
2023-01-06T06:57:41.998Z,10.40
2023-01-06T07:00:11.522Z,10.40
2023-01-06T07:02:39.441Z,10.40
2023-01-06T07:05:07.734Z,10.40
2023-01-06T07:07:35.635Z,10.40
2023-01-06T07:10:03.523Z,10.40
2023-01-06T07:12:31.371Z,10.50
2023-01-06T07:15:00.629Z,10.50
2023-01-06T07:17:28.976Z,10.50
2023-01-06T07:19:56.832Z,10.40
2023-01-06T07:22:24.712Z,10.40
2023-01-06T07:24:52.539Z,10.40
2023-01-06T07:27:20.378Z,10.40
2023-01-06T07:29:48.271Z,10.40
2023-01-06T07:32:17.563Z,10.40
2023-01-06T07:34:45.510Z,10.40
2023-01-06T07:37:13.421Z,10.30
2023-01-06T07:39:41.312Z,10.30
2023-01-06T07:42:10.116Z,10.30
2023-01-06T07:44:38.155Z,10.30
2023-01-06T07:47:06.560Z,10.30
2023-01-06T07:49:35.845Z,10.30
2023-01-06T07:52:03.699Z,10.30
2023-01-06T07:54:31.668Z,10.20
2023-01-06T07:56:59.765Z,10.20
2023-01-06T07:59:27.699Z,10.20
2023-01-06T08:01:55.747Z,10.20
2023-01-06T08:04:23.634Z,10.10
2023-01-06T08:06:52.808Z,10.20
2023-01-06T08:09:20.641Z,10.10
2023-01-06T08:11:48.536Z,10.10
2023-01-06T08:14:16.558Z,10.10
2023-01-06T08:16:44.642Z,10.00
2023-01-06T08:19:12.492Z,10.00
2023-01-06T08:21:40.334Z,10.00
2023-01-06T08:24:10.048Z,10.00
2023-01-06T08:26:37.999Z,10.00
2023-01-06T08:29:06.019Z,10.00
2023-01-06T08:31:33.895Z,10.00
2023-01-06T08:34:01.978Z,10.00
2023-01-06T08:36:29.948Z,10.00
2023-01-06T08:38:57.934Z,10.00
2023-01-06T08:41:27.152Z,10.00
2023-01-06T08:43:56.481Z,10.00
2023-01-06T08:46:26.351Z,10.00
2023-01-06T08:48:54.255Z,10.00
2023-01-06T08:51:23.604Z,10.00
2023-01-06T08:53:52.073Z,9.90
2023-01-06T08:56:26.918Z,9.90
2023-01-06T08:58:58.207Z,9.90
2023-01-06T09:01:29.161Z,9.90
2023-01-06T09:03:59.192Z,9.90
2023-01-06T09:06:28.044Z,9.80
2023-01-06T09:08:57.084Z,9.80
2023-01-06T09:11:25.678Z,9.90
2023-01-06T09:13:54.203Z,9.90
2023-01-06T09:16:23.678Z,9.80
2023-01-06T09:18:52.030Z,9.80
2023-01-06T09:21:23.147Z,9.80
2023-01-06T09:23:51.557Z,9.80
2023-01-06T09:26:21.543Z,9.80
2023-01-06T09:28:49.646Z,9.80
2023-01-06T09:31:18.847Z,9.80
2023-01-06T09:33:48.539Z,9.80
2023-01-06T09:36:16.382Z,9.80
2023-01-06T09:38:44.280Z,9.80
2023-01-06T09:41:35.693Z,9.90
2023-01-06T09:44:12.141Z,9.90
2023-01-06T09:46:43.062Z,9.90
2023-01-06T09:49:21.279Z,9.90
2023-01-06T09:51:49.631Z,9.90
2023-01-06T09:54:22.045Z,9.90
2023-01-06T09:56:55.450Z,10.00
2023-01-06T09:59:29.546Z,10.00
2023-01-06T10:01:59.782Z,10.00
2023-01-06T10:04:31.233Z,10.00
2023-01-06T10:07:13.567Z,10.00
2023-01-06T10:09:51.143Z,10.00
2023-01-06T10:12:32.487Z,10.00
2023-01-06T10:15:14.682Z,10.00
2023-01-06T10:17:54.669Z,10.00
2023-01-06T10:20:45.674Z,10.10
2023-01-06T10:23:29.865Z,10.10
2023-01-06T10:26:09.717Z,10.10
2023-01-06T10:28:42.320Z,10.10
2023-01-06T10:31:15.143Z,10.10
2023-01-06T10:33:47.366Z,10.10
2023-01-06T10:36:18.386Z,10.20
2023-01-06T10:38:49.445Z,10.20
2023-01-06T10:41:25.291Z,10.20
2023-01-06T10:43:53.164Z,10.20
2023-01-06T10:46:21.252Z,10.20
2023-01-06T10:48:50.373Z,10.20
2023-01-06T10:51:35.821Z,10.20
2023-01-06T10:54:08.205Z,10.20
2023-01-06T10:56:37.904Z,10.30
2023-01-06T10:59:09.205Z,10.30
2023-01-06T11:01:49.084Z,10.20
2023-01-06T11:04:17.373Z,10.20
2023-01-06T11:06:49.968Z,10.20
2023-01-06T11:09:32.677Z,10.20
2023-01-06T11:12:03.438Z,10.30
2023-01-06T11:14:32.699Z,10.30
2023-01-06T11:17:03.508Z,10.30
2023-01-06T11:19:39.768Z,10.30
2023-01-06T11:22:34.994Z,10.30
2023-01-06T11:25:05.396Z,10.30
2023-01-06T11:27:33.336Z,10.30
2023-01-06T11:30:21.110Z,10.30
2023-01-06T11:32:49.195Z,10.30
2023-01-06T11:35:21.303Z,10.30
2023-01-06T11:37:57.237Z,10.30
2023-01-06T11:40:29.882Z,10.30
2023-01-06T11:43:00.715Z,10.30
2023-01-06T11:45:35.265Z,10.40
2023-01-06T11:48:06.067Z,10.40
2023-01-06T11:50:34.106Z,10.40
2023-01-06T11:53:05.964Z,10.40
2023-01-06T11:55:33.840Z,10.40
2023-01-06T11:58:09.391Z,10.40
2023-01-06T12:00:46.440Z,10.50
2023-01-06T12:03:21.966Z,10.50
2023-01-06T12:05:57.798Z,10.40
2023-01-06T12:08:32.880Z,10.50
2023-01-06T12:11:05.951Z,10.50
2023-01-06T12:13:45.624Z,10.40
2023-01-06T12:16:27.237Z,10.50
2023-01-06T12:18:55.572Z,10.50
2023-01-06T12:21:28.757Z,10.50
2023-01-06T12:24:00.545Z,10.50
2023-01-06T12:26:29.995Z,10.50
2023-01-06T12:28:59.909Z,10.50
2023-01-06T12:31:32.989Z,10.50
2023-01-06T12:34:05.374Z,10.50
2023-01-06T12:36:39.195Z,10.50
2023-01-06T12:39:13.812Z,10.50
2023-01-06T12:41:46.565Z,10.50
2023-01-06T12:44:20.785Z,10.60
2023-01-06T12:46:56.589Z,10.50
2023-01-06T12:49:32.702Z,10.50
2023-01-06T12:52:05.385Z,10.50
2023-01-06T12:54:36.311Z,10.50
2023-01-06T12:57:20.586Z,10.50
2023-01-06T13:00:02.693Z,10.50
2023-01-06T13:02:49.087Z,10.40
2023-01-06T13:05:48.664Z,10.40
2023-01-06T13:08:41.732Z,10.50
2023-01-06T13:11:20.517Z,10.40
2023-01-06T13:14:03.665Z,10.40
2023-01-06T13:16:41.732Z,10.50
2023-01-06T13:19:22.176Z,10.40
2023-01-06T13:21:53.073Z,10.50
2023-01-06T13:24:42.105Z,10.40
2023-01-06T13:27:37.270Z,10.50
2023-01-06T13:30:17.792Z,10.40
2023-01-06T13:33:00.833Z,10.40
2023-01-06T13:35:45.823Z,10.40
2023-01-06T13:38:27.013Z,10.50
2023-01-06T13:41:00.287Z,10.40
2023-01-06T13:43:31.458Z,10.50
2023-01-06T13:46:04.490Z,10.50
2023-01-06T13:48:37.242Z,10.50
2023-01-06T13:51:08.451Z,10.50
2023-01-06T13:53:38.435Z,10.50
2023-01-06T13:56:26.702Z,10.50
2023-01-06T14:01:53.144Z,10.50
2023-01-06T14:04:57.647Z,10.50
2023-01-06T14:07:37.311Z,10.50
2023-01-06T14:10:28.220Z,10.50
2023-01-06T14:12:56.903Z,10.50
2023-01-06T14:15:29.583Z,10.50
2023-01-06T14:17:59.052Z,10.50
2023-01-06T14:20:31.512Z,10.50
2023-01-06T14:23:01.625Z,10.40
2023-01-06T14:25:30.775Z,10.50
2023-01-06T14:28:27.123Z,10.40
2023-01-06T14:31:28.157Z,10.40
2023-01-06T14:33:58.546Z,10.40
2023-01-06T14:36:30.327Z,10.40
2023-01-06T14:39:02.037Z,10.40
2023-01-06T14:41:33.559Z,10.40
2023-01-06T14:44:07.476Z,10.40
2023-01-06T14:46:41.366Z,10.40
2023-01-06T14:49:17.944Z,10.40
2023-01-06T14:51:47.455Z,10.40
2023-01-06T14:54:22.301Z,10.40
2023-01-06T14:56:57.985Z,10.40
2023-01-06T14:59:26.421Z,10.40
2023-01-06T15:02:05.577Z,10.40
2023-01-06T15:04:36.405Z,10.40
2023-01-06T15:07:17.056Z,10.40
2023-01-06T15:09:45.493Z,10.30
2023-01-06T15:12:27.984Z,10.30
2023-01-06T15:14:55.970Z,10.30
2023-01-06T15:17:24.227Z,10.30
2023-01-06T15:19:54.691Z,10.30
2023-01-06T15:22:25.640Z,10.30
2023-01-06T15:24:53.788Z,10.30
2023-01-06T15:27:21.697Z,10.20
2023-01-06T15:29:53.959Z,10.20
2023-01-06T15:32:23.254Z,10.20
2023-01-06T15:34:53.880Z,10.20
2023-01-06T15:37:24.511Z,10.20
2023-01-06T15:39:53.105Z,10.20
2023-01-06T15:42:23.961Z,10.20
2023-01-06T15:44:57.148Z,10.10
2023-01-06T15:47:31.306Z,10.10
2023-01-06T15:50:03.095Z,10.20
2023-01-06T15:52:33.983Z,10.20
2023-01-06T15:55:04.653Z,10.20
2023-01-06T15:57:36.349Z,10.20
2023-01-06T16:00:09.358Z,10.10
2023-01-06T16:02:37.802Z,10.10
2023-01-06T16:05:07.714Z,10.20
2023-01-06T16:07:40.258Z,10.10
2023-01-06T16:10:30.286Z,10.10
2023-01-06T16:13:20.042Z,10.10
2023-01-06T16:15:49.835Z,10.00
2023-01-06T16:18:27.154Z,10.00
2023-01-06T16:20:57.596Z,10.00
2023-01-06T16:23:30.679Z,10.00
2023-01-06T16:26:08.037Z,10.00
2023-01-06T16:28:36.515Z,10.00
2023-01-06T16:31:07.026Z,10.00
2023-01-06T16:33:38.812Z,10.00
2023-01-06T16:36:16.400Z,9.90
2023-01-06T16:38:45.010Z,9.90
2023-01-06T16:41:17.669Z,9.90
2023-01-06T16:43:46.944Z,9.80
2023-01-06T16:46:25.023Z,9.80
2023-01-06T16:48:54.965Z,9.80
2023-01-06T16:51:25.094Z,9.80
2023-01-06T16:53:55.286Z,9.80
2023-01-06T16:56:24.199Z,9.80
2023-01-06T16:58:53.144Z,9.70
2023-01-06T17:01:22.962Z,9.80
2023-01-06T17:03:55.994Z,9.80
2023-01-06T17:06:27.992Z,9.70
2023-01-06T17:08:57.516Z,9.70
2023-01-06T17:11:27.821Z,9.70
2023-01-06T17:13:58.256Z,9.70
2023-01-06T17:16:30.891Z,9.70
2023-01-06T17:19:00.606Z,9.70
2023-01-06T17:21:33.758Z,9.70
2023-01-06T17:24:10.751Z,9.70
2023-01-06T17:26:38.995Z,9.70
2023-01-06T17:29:13.266Z,9.70
2023-01-06T17:31:43.076Z,9.60
2023-01-06T17:34:15.624Z,9.60
2023-01-06T17:36:47.260Z,9.60
2023-01-06T17:39:19.677Z,9.60
2023-01-06T17:41:47.548Z,9.60
2023-01-06T17:44:18.370Z,9.60
2023-01-06T17:46:47.480Z,9.60
2023-01-06T17:49:44.952Z,9.60
2023-01-06T17:52:20.055Z,9.60
2023-01-06T17:55:11.769Z,9.60
2023-01-06T17:57:42.214Z,9.60
2023-01-06T18:00:26.259Z,9.60
2023-01-06T18:02:58.754Z,9.60
2023-01-06T18:06:05.792Z,9.50
2023-01-06T18:08:37.575Z,9.50
2023-01-06T18:11:27.729Z,9.50
2023-01-06T18:13:55.720Z,9.50
2023-01-06T18:16:32.051Z,9.50
2023-01-06T18:19:08.409Z,9.50
2023-01-06T18:21:39.284Z,9.50
2023-01-06T18:24:22.465Z,9.50
2023-01-06T18:26:53.403Z,9.50
2023-01-06T18:29:25.020Z,9.50
2023-01-06T18:31:54.404Z,9.50
2023-01-06T18:34:32.211Z,9.40
2023-01-06T18:37:01.942Z,9.40
2023-01-06T18:39:40.453Z,9.40
2023-01-06T18:42:23.502Z,9.40
2023-01-06T18:44:55.974Z,9.40
2023-01-06T18:47:25.639Z,9.50
2023-01-06T18:49:59.079Z,9.50
2023-01-06T18:52:40.780Z,9.50
2023-01-06T18:55:21.111Z,9.60
2023-01-06T18:57:56.778Z,9.60
2023-01-06T19:00:39.646Z,9.60
2023-01-06T19:03:31.269Z,9.60
2023-01-06T19:06:22.997Z,9.70
2023-01-06T19:08:52.265Z,9.70
2023-01-06T19:11:24.767Z,9.70
2023-01-06T19:13:55.840Z,9.80
2023-01-06T19:16:29.464Z,9.80
2023-01-06T19:19:07.067Z,9.90
2023-01-06T19:21:35.603Z,9.90
2023-01-06T19:24:17.921Z,10.00
2023-01-06T19:26:47.247Z,10.00
2023-01-06T19:29:16.613Z,10.10
2023-01-06T19:31:55.209Z,10.10
2023-01-06T19:34:24.167Z,10.10
2023-01-06T19:36:53.408Z,10.10
2023-01-06T19:39:30.279Z,10.10
2023-01-06T19:42:14.648Z,10.10
2023-01-06T19:44:42.824Z,10.10
2023-01-06T19:47:20.891Z,10.10
2023-01-06T19:49:53.168Z,10.10
2023-01-06T19:52:35.284Z,10.10
2023-01-06T19:55:19.525Z,10.10
2023-01-06T19:57:52.469Z,10.10
2023-01-06T20:00:31.843Z,10.10
2023-01-06T20:03:04.360Z,10.20
2023-01-06T20:05:32.895Z,10.20
2023-01-06T20:08:00.837Z,10.20
2023-01-06T20:10:28.705Z,10.20
2023-01-06T20:12:58.050Z,10.20
2023-01-06T20:15:26.033Z,10.20
2023-01-06T20:17:53.938Z,10.20
2023-01-06T20:20:21.806Z,10.10
2023-01-06T20:22:49.651Z,10.10
2023-01-06T20:25:17.793Z,10.10
2023-01-06T20:27:45.871Z,10.10
2023-01-06T20:30:15.516Z,10.10
2023-01-06T20:32:43.400Z,10.10
2023-01-06T20:35:12.522Z,10.20
2023-01-06T20:37:40.548Z,10.20
2023-01-06T20:40:09.875Z,10.20
2023-01-06T20:42:37.919Z,10.20
2023-01-06T20:45:06.948Z,10.20
2023-01-06T20:47:36.261Z,10.30
2023-01-06T20:50:07.286Z,10.30
2023-01-06T20:52:35.308Z,10.40
2023-01-06T20:55:03.212Z,10.40
2023-01-06T20:57:31.184Z,10.50
2023-01-06T20:59:59.098Z,10.50
2023-01-06T21:02:27.239Z,10.60
2023-01-06T21:04:56.555Z,10.70
2023-01-06T21:07:24.630Z,10.70
2023-01-06T21:09:52.541Z,10.70
2023-01-06T21:12:20.453Z,10.80
2023-01-06T21:14:48.280Z,10.80
2023-01-06T21:17:16.203Z,10.90
2023-01-06T21:19:44.099Z,10.90
2023-01-06T21:22:13.325Z,10.90
2023-01-06T21:24:41.189Z,10.90
2023-01-06T21:27:09.088Z,10.90
2023-01-06T21:29:37.062Z,10.90
2023-01-06T21:32:05.301Z,11.00
2023-01-06T21:34:33.292Z,11.00
2023-01-06T21:37:01.133Z,11.00
2023-01-06T21:39:30.362Z,11.00
2023-01-06T21:42:15.799Z,11.00
2023-01-06T21:44:43.868Z,11.00
2023-01-06T21:47:12.293Z,11.10
2023-01-06T21:49:42.008Z,11.00
2023-01-06T21:52:10.527Z,11.10
2023-01-06T21:54:39.855Z,11.00
2023-01-06T21:57:07.964Z,11.10
2023-01-06T21:59:36.091Z,11.10
2023-01-06T22:02:04.529Z,11.10
2023-01-06T22:04:32.615Z,11.10
2023-01-06T22:07:03.652Z,11.10
2023-01-06T22:09:33.135Z,11.10
2023-01-06T22:12:04.778Z,11.20
2023-01-06T22:14:33.222Z,11.20
2023-01-06T22:17:01.393Z,11.20
2023-01-06T22:19:30.313Z,11.20
2023-01-06T22:22:00.441Z,11.20
2023-01-06T22:24:28.932Z,11.20
2023-01-06T22:26:56.840Z,11.20
2023-01-06T22:29:26.098Z,11.20
2023-01-06T22:31:54.051Z,11.20
2023-01-06T22:34:21.951Z,11.20
2023-01-06T22:36:49.801Z,11.20
2023-01-06T22:39:17.695Z,11.20
2023-01-06T22:41:47.205Z,11.20
2023-01-06T22:44:15.381Z,11.20
2023-01-06T22:46:44.660Z,11.20
2023-01-06T22:49:12.755Z,11.20
2023-01-06T22:51:40.592Z,11.20
2023-01-06T22:54:08.441Z,11.20
2023-01-06T22:56:36.503Z,11.20
2023-01-06T22:59:04.590Z,11.20
2023-01-06T23:01:32.608Z,11.20
2023-01-06T23:04:03.239Z,11.30
2023-01-06T23:06:31.158Z,11.30
2023-01-06T23:09:00.897Z,11.30
2023-01-06T23:11:31.317Z,11.30
2023-01-06T23:14:00.134Z,11.30
2023-01-06T23:16:30.189Z,11.30
2023-01-06T23:18:58.515Z,11.30
2023-01-06T23:21:31.161Z,11.30
2023-01-06T23:23:59.059Z,11.30
2023-01-06T23:26:29.251Z,11.30
2023-01-06T23:28:58.334Z,11.30
2023-01-06T23:31:28.114Z,11.30
2023-01-06T23:33:58.496Z,11.30
2023-01-06T23:36:30.640Z,11.30
2023-01-06T23:38:59.995Z,11.30
2023-01-06T23:41:29.874Z,11.30
2023-01-06T23:43:58.282Z,11.30
2023-01-06T23:46:29.912Z,11.30
2023-01-06T23:48:58.287Z,11.30
2023-01-06T23:51:30.177Z,11.30
2023-01-06T23:53:58.261Z,11.30
2023-01-06T23:56:28.369Z,11.30
2023-01-06T23:58:58.015Z,11.30
